createdAt,value
2018-07-30T00:04:57.286Z,9.73
2018-07-30T00:10:00.568Z,8.87
2018-07-30T00:15:04.116Z,8.43
2018-07-30T00:20:07.109Z,8.67
2018-07-30T00:25:10.247Z,9.83
2018-07-30T00:30:13.511Z,9.07
2018-07-30T00:35:16.767Z,9.07
2018-07-30T00:40:20.463Z,8.17
2018-07-30T00:45:23.748Z,8.97
2018-07-30T00:50:27.479Z,10.23
2018-07-30T00:55:30.736Z,9.23
2018-07-30T01:00:33.987Z,8.80
2018-07-30T01:05:37.285Z,9.60
2018-07-30T01:10:40.572Z,9.77
2018-07-30T01:15:43.852Z,10.00
2018-07-30T01:20:46.831Z,9.63
2018-07-30T01:25:50.931Z,10.07
2018-07-30T01:30:54.693Z,9.40
2018-07-30T01:35:58.699Z,9.40
2018-07-30T01:41:02.016Z,9.87
2018-07-30T01:46:05.713Z,9.47
2018-07-30T01:51:08.980Z,10.77
2018-07-30T01:56:12.216Z,9.87
2018-07-30T02:01:15.498Z,10.30
2018-07-30T02:06:18.741Z,10.00
2018-07-30T02:11:22.004Z,9.57
2018-07-30T02:16:25.303Z,9.70
2018-07-30T02:21:28.645Z,10.43
2018-07-30T02:26:31.850Z,10.17
2018-07-30T02:31:34.886Z,10.57
2018-07-30T02:36:38.187Z,11.27
2018-07-30T02:41:41.799Z,12.03
2018-07-30T02:46:45.052Z,13.90
2018-07-30T02:51:49.565Z,10.47
2018-07-30T02:56:52.819Z,11.03
2018-07-30T03:01:56.084Z,11.43
2018-07-30T03:06:59.352Z,11.83
2018-07-30T03:12:02.836Z,11.10
2018-07-30T03:17:06.439Z,12.67
2018-07-30T03:22:09.977Z,11.33
2018-07-30T03:27:13.427Z,11.70
2018-07-30T03:32:16.704Z,14.87
2018-07-30T03:37:19.967Z,11.77
2018-07-30T03:42:24.282Z,13.13
2018-07-30T03:47:27.472Z,12.47
2018-07-30T03:52:30.728Z,14.40
2018-07-30T03:57:33.975Z,13.07
2018-07-30T04:02:37.236Z,12.30
2018-07-30T04:07:40.503Z,12.13
2018-07-30T04:12:43.803Z,11.77
2018-07-30T04:17:47.043Z,12.20
2018-07-30T04:22:54.018Z,12.70
2018-07-30T04:27:57.286Z,12.80
2018-07-30T04:33:00.552Z,11.67
2018-07-30T04:38:03.831Z,11.53
2018-07-30T04:43:07.103Z,13.07
2018-07-30T04:48:10.495Z,12.50
2018-07-30T04:53:13.783Z,12.10
2018-07-30T04:58:17.063Z,11.93
2018-07-30T05:03:20.342Z,12.93
2018-07-30T05:08:23.385Z,13.43
2018-07-30T05:13:26.686Z,13.00
2018-07-30T05:18:30.003Z,11.53
2018-07-30T05:23:33.307Z,11.70
2018-07-30T05:28:36.602Z,12.10
2018-07-30T05:33:39.877Z,11.07
2018-07-30T05:38:44.160Z,10.80
2018-07-30T05:43:47.476Z,10.20
2018-07-30T05:48:50.737Z,10.50
2018-07-30T05:53:53.986Z,13.73
2018-07-30T05:58:57.265Z,11.53
2018-07-30T06:04:00.519Z,11.30
2018-07-30T06:09:05.779Z,10.72
2018-07-30T06:14:09.018Z,10.53
2018-07-30T06:19:12.292Z,11.15
2018-07-30T06:24:15.555Z,10.30
2018-07-30T06:29:18.837Z,10.20
2018-07-30T06:34:22.108Z,10.65
2018-07-30T06:39:25.381Z,10.13
2018-07-30T06:44:28.662Z,11.25
2018-07-30T06:49:31.939Z,11.12
2018-07-30T06:54:35.204Z,10.85
2018-07-30T06:59:38.460Z,11.35
2018-07-30T07:04:42.414Z,10.58
2018-07-30T07:09:45.980Z,11.50
2018-07-30T07:14:49.337Z,9.98
2018-07-30T07:19:52.592Z,9.95
2018-07-30T07:24:56.118Z,11.10
2018-07-30T07:29:59.479Z,10.53
2018-07-30T07:35:02.851Z,13.83
2018-07-30T07:40:06.838Z,11.57
2018-07-30T07:45:10.750Z,9.90
2018-07-30T07:50:14.799Z,8.83
2018-07-30T07:55:19.181Z,9.38
2018-07-30T08:00:22.528Z,9.33
2018-07-30T08:05:26.023Z,9.73
2018-07-30T08:10:30.947Z,11.65
2018-07-30T08:15:35.021Z,8.93
2018-07-30T08:20:41.842Z,8.53
2018-07-30T08:25:47.362Z,7.95
2018-07-30T08:30:52.050Z,10.15
2018-07-30T08:35:57.177Z,7.50
2018-07-30T08:41:01.299Z,8.55
2018-07-30T08:46:05.372Z,8.05
2018-07-30T08:51:09.292Z,8.48
2018-07-30T08:56:13.195Z,6.37
2018-07-30T09:01:17.357Z,6.60
2018-07-30T09:06:21.152Z,6.42
2018-07-30T09:11:25.221Z,6.30
2018-07-30T09:16:28.688Z,6.85
2018-07-30T09:21:32.781Z,6.28
2018-07-30T09:26:36.275Z,5.72
2018-07-30T09:31:40.039Z,6.87
2018-07-30T09:36:43.933Z,5.53
2018-07-30T09:41:47.009Z,5.22
2018-07-30T09:46:51.360Z,6.03
2018-07-30T09:51:54.984Z,4.83
2018-07-30T09:56:59.072Z,5.35
2018-07-30T10:02:03.460Z,5.20
2018-07-30T10:07:06.851Z,5.03
2018-07-30T10:12:10.659Z,4.47
2018-07-30T10:17:14.768Z,4.35
2018-07-30T10:22:18.677Z,4.80
2018-07-30T10:27:22.034Z,5.78
2018-07-30T10:32:25.406Z,6.65
2018-07-30T10:37:28.687Z,5.12
2018-07-30T10:42:31.955Z,4.85
2018-07-30T10:47:35.216Z,4.62
2018-07-30T10:52:38.366Z,4.42
2018-07-30T10:57:42.389Z,4.70
2018-07-30T11:02:45.963Z,4.15
2018-07-30T11:07:49.633Z,7.30
2018-07-30T11:12:54.775Z,5.00
2018-07-30T11:17:59.569Z,4.00
2018-07-30T11:23:05.106Z,4.35
2018-07-30T11:28:09.372Z,4.00
2018-07-30T11:33:13.111Z,4.45
2018-07-30T11:38:16.867Z,4.37
2018-07-30T11:43:20.336Z,4.10
2018-07-30T11:48:23.987Z,3.70
2018-07-30T11:53:28.817Z,3.35
2018-07-30T11:58:33.967Z,3.87
2018-07-30T12:03:38.679Z,3.70
2018-07-30T12:08:43.499Z,4.00
2018-07-30T12:13:46.758Z,3.62
2018-07-30T12:18:49.766Z,4.85
2018-07-30T12:23:52.771Z,4.33
2018-07-30T12:28:56.318Z,4.50
2018-07-30T12:33:59.478Z,4.20
2018-07-30T12:39:03.427Z,4.15
2018-07-30T12:44:07.577Z,4.10
2018-07-30T12:49:11.888Z,5.12
2018-07-30T12:54:15.264Z,4.17
2018-07-30T12:59:19.206Z,4.50
2018-07-30T13:04:23.450Z,4.00
2018-07-30T13:09:26.806Z,4.10
2018-07-30T13:14:30.966Z,4.33
2018-07-30T13:19:35.198Z,5.65
2018-07-30T13:24:39.096Z,4.67
2018-07-30T13:29:42.921Z,5.60
2018-07-30T13:34:46.498Z,5.25
2018-07-30T13:39:50.121Z,4.45
2018-07-30T13:44:53.424Z,4.87
2018-07-30T13:49:57.456Z,5.72
2018-07-30T13:55:01.390Z,4.92
2018-07-30T14:00:06.774Z,5.05
2018-07-30T14:05:11.492Z,4.80
2018-07-30T14:10:15.083Z,4.80
2018-07-30T14:15:18.848Z,4.72
2018-07-30T14:20:22.188Z,5.70
2018-07-30T14:25:25.402Z,4.47
2018-07-30T14:30:28.666Z,5.85
2018-07-30T14:35:32.121Z,4.83
2018-07-30T14:40:35.947Z,5.35
2018-07-30T14:45:39.466Z,4.15
2018-07-30T14:50:42.900Z,3.85
2018-07-30T14:55:46.312Z,3.60
2018-07-30T15:00:50.235Z,5.33
2018-07-30T15:05:53.532Z,3.90
2018-07-30T15:10:58.565Z,3.52
2018-07-30T15:16:01.856Z,3.77
2018-07-30T15:21:05.367Z,5.15
2018-07-30T15:26:08.635Z,3.62
2018-07-30T15:31:11.903Z,4.28
2018-07-30T15:36:15.644Z,4.03
2018-07-30T15:41:18.895Z,4.45
2018-07-30T15:46:22.273Z,3.58
2018-07-30T15:51:25.573Z,4.45
2018-07-30T15:56:29.913Z,4.12
2018-07-30T16:01:33.619Z,4.47
2018-07-30T16:06:37.024Z,5.08
2018-07-30T16:11:40.262Z,4.50
2018-07-30T16:16:43.542Z,6.10
2018-07-30T16:21:46.815Z,4.20
2018-07-30T16:26:50.092Z,4.28
2018-07-30T16:31:54.529Z,4.90
2018-07-30T16:36:57.799Z,4.60
2018-07-30T16:42:00.786Z,4.08
2018-07-30T16:47:04.083Z,3.67
2018-07-30T16:52:07.343Z,4.03
2018-07-30T16:57:10.703Z,7.83
2018-07-30T17:02:13.962Z,6.03
2018-07-30T17:07:18.643Z,4.33
2018-07-30T17:12:23.171Z,4.08
2018-07-30T17:17:26.452Z,3.60
2018-07-30T17:22:29.722Z,5.85
2018-07-30T17:27:33.166Z,5.00
2018-07-30T17:32:36.459Z,6.70
2018-07-30T17:37:39.708Z,5.05
2018-07-30T17:42:42.963Z,4.05
2018-07-30T17:47:46.247Z,10.78
2018-07-30T17:52:49.500Z,9.95
2018-07-30T17:57:59.266Z,17.12
2018-07-30T18:03:02.611Z,9.15
2018-07-30T18:08:06.045Z,4.20
2018-07-30T18:13:09.305Z,5.62
2018-07-30T18:18:12.591Z,7.75
2018-07-30T18:23:15.841Z,6.78
2018-07-30T18:28:18.937Z,5.42
2018-07-30T18:33:21.990Z,5.45
2018-07-30T18:38:25.195Z,7.25
2018-07-30T18:43:29.684Z,5.70
2018-07-30T18:48:33.315Z,6.78
2018-07-30T18:53:36.415Z,7.60
2018-07-30T18:58:40.070Z,5.85
2018-07-30T19:03:43.355Z,5.10
2018-07-30T19:08:46.350Z,5.12
2018-07-30T19:13:49.634Z,7.87
2018-07-30T19:18:52.984Z,8.63
2018-07-30T19:23:56.223Z,10.03
2018-07-30T19:28:59.487Z,8.28
2018-07-30T19:34:02.764Z,7.25
2018-07-30T19:39:08.241Z,6.97
2018-07-30T19:44:11.745Z,8.93
2018-07-30T19:49:14.959Z,7.35
2018-07-30T19:54:18.247Z,8.88
2018-07-30T19:59:22.342Z,6.55
2018-07-30T20:04:26.240Z,8.73
2018-07-30T20:09:29.491Z,9.97
2018-07-30T20:14:32.731Z,7.27
2018-07-30T20:19:36.245Z,9.43
2018-07-30T20:24:40.182Z,7.62
2018-07-30T20:29:44.227Z,10.65
2018-07-30T20:34:47.619Z,8.27
2018-07-30T20:39:50.934Z,9.23
2018-07-30T20:44:54.282Z,10.20
2018-07-30T20:49:57.638Z,9.30
2018-07-30T20:55:02.770Z,10.27
2018-07-30T21:00:07.189Z,9.83
2018-07-30T21:05:11.011Z,10.27
2018-07-30T21:10:14.255Z,9.93
2018-07-30T21:15:17.511Z,10.20
2018-07-30T21:20:21.272Z,10.90
2018-07-30T21:25:25.208Z,11.37
2018-07-30T21:30:29.192Z,10.40
2018-07-30T21:35:32.519Z,10.10
2018-07-30T21:40:36.047Z,10.77
2018-07-30T21:45:39.719Z,10.27
2018-07-30T21:50:43.524Z,10.47
2018-07-30T21:55:46.797Z,11.40
2018-07-30T22:00:58.304Z,11.00
2018-07-30T22:06:02.488Z,11.20
2018-07-30T22:11:06.380Z,11.57
2018-07-30T22:16:10.324Z,11.50
2018-07-30T22:21:13.597Z,12.13
2018-07-30T22:26:17.593Z,11.83
2018-07-30T22:31:20.954Z,13.53
2018-07-30T22:36:24.042Z,12.60
2018-07-30T22:41:27.351Z,14.53
2018-07-30T22:46:30.361Z,13.40
2018-07-30T22:51:33.644Z,12.53
2018-07-30T22:56:36.906Z,13.33
2018-07-30T23:01:40.151Z,12.90
2018-07-30T23:06:43.435Z,13.27
2018-07-30T23:11:46.875Z,13.90
2018-07-30T23:16:50.186Z,14.63
2018-07-30T23:21:53.440Z,13.53
2018-07-30T23:26:56.933Z,14.97
2018-07-30T23:32:00.221Z,14.03
2018-07-30T23:37:03.549Z,13.17
2018-07-30T23:42:07.059Z,14.53
2018-07-30T23:47:10.327Z,15.00
2018-07-30T23:52:13.585Z,14.10
2018-07-30T23:57:17.136Z,14.07
